createdAt,value
2023-05-23T00:00:46.073Z,50.867374
2023-05-23T00:01:45.996Z,50.867268
2023-05-23T00:02:46.007Z,50.866966
2023-05-23T00:03:46.007Z,50.866920
2023-05-23T00:04:45.921Z,50.866894
2023-05-23T00:05:45.925Z,50.866909
2023-05-23T00:06:45.900Z,50.866959
2023-05-23T00:07:45.909Z,50.866886
2023-05-23T00:08:45.906Z,50.866879
2023-05-23T00:09:45.878Z,50.866917
2023-05-23T00:10:45.877Z,50.866894
2023-05-23T00:11:46.018Z,50.866894
2023-05-23T00:12:45.851Z,50.866932
2023-05-23T00:13:45.846Z,50.866913
2023-05-23T00:14:45.876Z,50.866928
2023-05-23T00:15:45.859Z,50.866947
2023-05-23T00:16:48.699Z,50.866970
2023-05-23T00:17:45.825Z,50.867001
2023-05-23T00:18:46.044Z,50.866974
2023-05-23T00:19:45.832Z,50.866886
2023-05-23T00:36:37.252Z,50.866638
2023-05-23T00:37:37.249Z,50.866673
2023-05-23T00:38:37.247Z,50.866642
2023-05-23T00:39:37.263Z,50.866608
2023-05-23T00:40:37.219Z,50.866592
2023-05-23T00:41:37.227Z,50.866676
2023-05-23T00:42:37.226Z,50.866653
2023-05-23T00:43:37.192Z,50.866669
2023-05-23T00:44:37.182Z,50.866749
2023-05-23T00:45:37.194Z,50.866673
2023-05-23T00:46:37.258Z,50.866680
2023-05-23T00:47:37.188Z,50.866673
2023-05-23T00:48:37.275Z,50.866741
2023-05-23T00:49:37.150Z,50.866695
2023-05-23T00:50:37.138Z,50.866798
2023-05-23T00:51:37.123Z,50.866764
2023-05-23T00:52:37.116Z,50.866798
2023-05-23T00:53:37.126Z,50.866901
2023-05-23T00:54:37.096Z,50.866844
2023-05-23T00:55:37.134Z,50.866837
2023-05-23T00:56:37.089Z,50.866806
2023-05-23T00:57:37.094Z,50.866833
2023-05-23T00:58:37.073Z,50.866772
2023-05-23T00:59:37.086Z,50.866772
2023-05-23T01:00:37.066Z,50.866810
2023-05-23T01:01:37.115Z,50.866859
2023-05-23T01:02:37.128Z,50.866886
2023-05-23T01:03:37.076Z,50.866852
2023-05-23T01:04:37.170Z,50.866863
2023-05-23T01:05:37.026Z,50.866917
2023-05-23T01:06:37.025Z,50.866913
2023-05-23T01:07:37.006Z,50.867001
2023-05-23T01:08:37.013Z,50.866978
2023-05-23T01:09:37.011Z,50.866890
2023-05-23T01:10:36.976Z,50.866882
2023-05-23T01:11:37.720Z,50.866978
2023-05-23T01:12:36.994Z,50.866905
2023-05-23T01:13:36.952Z,50.866882
2023-05-23T01:14:36.957Z,50.866806
2023-05-23T01:15:36.969Z,50.866734
2023-05-23T01:16:36.950Z,50.866829
2023-05-23T01:17:37.020Z,50.866806
2023-05-23T01:18:36.915Z,50.866817
2023-05-23T01:19:36.910Z,50.866817
2023-05-23T01:20:36.990Z,50.866825
2023-05-23T01:21:36.990Z,50.866802
2023-05-23T01:22:36.950Z,50.866760
2023-05-23T01:23:36.912Z,50.866810
2023-05-23T01:24:36.861Z,50.866795
2023-05-23T01:25:36.853Z,50.866852
2023-05-23T01:26:36.849Z,50.866756
2023-05-23T01:27:36.844Z,50.866810
2023-05-23T01:28:36.846Z,50.866714
2023-05-23T01:29:36.853Z,50.866714
2023-05-23T01:30:36.840Z,50.866684
2023-05-23T01:31:36.883Z,50.866665
2023-05-23T01:32:36.850Z,50.866692
2023-05-23T01:33:36.798Z,50.866776
2023-05-23T01:34:36.798Z,50.866772
2023-05-23T01:35:36.783Z,50.866699
2023-05-23T01:36:36.877Z,50.866642
2023-05-23T01:37:36.781Z,50.866669
2023-05-23T01:38:36.805Z,50.866642
2023-05-23T01:39:36.765Z,50.866676
2023-05-23T01:40:36.738Z,50.866631
2023-05-23T01:41:36.740Z,50.866669
2023-05-23T01:42:36.743Z,50.866661
2023-05-23T01:43:36.721Z,50.866673
2023-05-23T01:44:36.708Z,50.866692
2023-05-23T01:45:36.753Z,50.866692
2023-05-23T01:46:36.687Z,50.866734
2023-05-23T01:47:36.739Z,50.866669
2023-05-23T01:48:36.685Z,50.866692
2023-05-23T01:49:36.668Z,50.866707
2023-05-23T01:50:36.674Z,50.866711
2023-05-23T01:51:36.661Z,50.866745
2023-05-23T01:52:36.752Z,50.866707
2023-05-23T01:53:36.648Z,50.866726
2023-05-23T01:54:36.628Z,50.866745
2023-05-23T01:55:36.676Z,50.866741
2023-05-23T01:56:36.640Z,50.866776
2023-05-23T01:57:36.618Z,50.866749
2023-05-23T01:58:36.602Z,50.866745
2023-05-23T01:59:36.592Z,50.866791
2023-05-23T02:00:36.589Z,50.866756
2023-05-23T02:01:36.639Z,50.866745
2023-05-23T02:02:36.626Z,50.866756
2023-05-23T02:03:36.624Z,50.866764
2023-05-23T02:04:36.552Z,50.866745
2023-05-23T02:05:36.534Z,50.866745
2023-05-23T02:06:37.177Z,50.866722
2023-05-23T02:07:36.529Z,50.866707
2023-05-23T02:08:36.650Z,50.866741
2023-05-23T02:09:36.538Z,50.866768
2023-05-23T02:10:36.510Z,50.866768
2023-05-23T02:11:36.499Z,50.866760
2023-05-23T02:12:36.514Z,50.866734
2023-05-23T02:13:36.484Z,50.866749
2023-05-23T02:14:36.488Z,50.866745
2023-05-23T02:15:36.466Z,50.866726
2023-05-23T02:16:36.663Z,50.866718
2023-05-23T02:17:36.477Z,50.866711
2023-05-23T02:18:36.450Z,50.866714
2023-05-23T02:19:36.575Z,50.866714
2023-05-23T02:20:36.456Z,50.866714
2023-05-23T02:21:36.430Z,50.866688
2023-05-23T02:22:36.420Z,50.866737
2023-05-23T02:23:36.416Z,50.866718
2023-05-23T02:24:36.505Z,50.866745
2023-05-23T02:25:36.394Z,50.866711
2023-05-23T02:26:36.395Z,50.866684
2023-05-23T02:27:36.389Z,50.866684
2023-05-23T02:28:36.370Z,50.866695
2023-05-23T02:29:36.358Z,50.866734
2023-05-23T02:30:36.353Z,50.866707
2023-05-23T02:31:36.387Z,50.866726
2023-05-23T02:32:36.470Z,50.866734
2023-05-23T02:33:36.346Z,50.866718
2023-05-23T02:34:36.323Z,50.866714
2023-05-23T02:35:36.298Z,50.866714
2023-05-23T02:36:36.308Z,50.866722
2023-05-23T02:37:36.293Z,50.866753
2023-05-23T02:38:36.293Z,50.866760
2023-05-23T02:39:36.269Z,50.866764
2023-05-23T02:40:36.386Z,50.866730
2023-05-23T02:41:36.289Z,50.866730
2023-05-23T02:42:36.240Z,50.866707
2023-05-23T02:43:36.251Z,50.866737
2023-05-23T02:44:36.240Z,50.866726
2023-05-23T02:45:36.227Z,50.866734
2023-05-23T02:46:36.329Z,50.866760
2023-05-23T02:47:36.258Z,50.866760
2023-05-23T02:48:36.226Z,50.866730
2023-05-23T02:49:36.189Z,50.866737
2023-05-23T02:50:37.191Z,50.866737
2023-05-23T02:51:36.175Z,50.866745
2023-05-23T02:52:36.177Z,50.866760
2023-05-23T02:53:36.184Z,50.866734
2023-05-23T02:54:36.179Z,50.866779
2023-05-23T02:55:36.166Z,50.866760
2023-05-23T02:56:36.242Z,50.866756
2023-05-23T02:57:36.135Z,50.866737
2023-05-23T02:58:36.169Z,50.866730
2023-05-23T02:59:36.149Z,50.866749
2023-05-23T03:00:36.114Z,50.866772
2023-05-23T03:01:36.123Z,50.866772
2023-05-23T03:02:36.138Z,50.866741
2023-05-23T03:03:36.161Z,50.866722
2023-05-23T03:04:36.072Z,50.866745
2023-05-23T03:05:36.067Z,50.866734
2023-05-23T03:06:36.063Z,50.866722
2023-05-23T03:07:36.057Z,50.866779
2023-05-23T03:08:36.041Z,50.866817
2023-05-23T03:09:36.062Z,50.866760
2023-05-23T03:10:36.050Z,50.866764
2023-05-23T03:11:36.071Z,50.866802
2023-05-23T03:12:36.119Z,50.866833
2023-05-23T03:13:36.003Z,50.866783
2023-05-23T03:14:35.985Z,50.866764
2023-05-23T03:15:36.002Z,50.866734
2023-05-23T03:16:36.065Z,50.866749
2023-05-23T03:17:36.008Z,50.866756
2023-05-23T03:18:35.994Z,50.866718
2023-05-23T03:19:36.690Z,50.866745
2023-05-23T03:20:36.945Z,50.866756
2023-05-23T03:21:35.942Z,50.866779
2023-05-23T03:22:35.937Z,50.866745
2023-05-23T03:23:35.927Z,50.866798
2023-05-23T03:24:36.757Z,50.866749
2023-05-23T03:25:35.912Z,50.866711
2023-05-23T03:26:35.904Z,50.866680
2023-05-23T03:27:35.882Z,50.866741
2023-05-23T03:28:35.996Z,50.866714
2023-05-23T03:29:35.880Z,50.866688
2023-05-23T03:30:35.855Z,50.866673
2023-05-23T03:31:36.890Z,50.866665
2023-05-23T03:32:35.884Z,50.866718
2023-05-23T03:33:38.239Z,50.866741
2023-05-23T03:34:37.180Z,50.866730
2023-05-23T03:35:35.817Z,50.866714
2023-05-23T03:36:36.752Z,50.866688
2023-05-23T03:37:35.806Z,50.866699
2023-05-23T03:38:35.798Z,50.866676
2023-05-23T03:39:36.413Z,50.866745
2023-05-23T03:40:37.191Z,50.866726
2023-05-23T03:41:35.791Z,50.866741
2023-05-23T03:42:35.767Z,50.866722
2023-05-23T03:43:35.766Z,50.866711
2023-05-23T03:44:36.814Z,50.866699
2023-05-23T03:45:42.985Z,50.866684
2023-05-23T03:46:39.676Z,50.866714
2023-05-23T03:47:36.683Z,50.866756
2023-05-23T03:48:35.769Z,50.866734
2023-05-23T03:49:35.812Z,50.866734
2023-05-23T03:50:36.694Z,50.866817
2023-05-23T03:51:35.777Z,50.866791
2023-05-23T03:52:35.710Z,50.866844
2023-05-23T03:53:36.701Z,50.866772
2023-05-23T03:54:36.721Z,50.866756
2023-05-23T03:55:35.673Z,50.866802
2023-05-23T03:56:35.676Z,50.866894
2023-05-23T03:57:36.270Z,50.866829
2023-05-23T03:58:35.656Z,50.866848
2023-05-23T03:59:35.659Z,50.866821
2023-05-23T04:00:35.745Z,50.866966
2023-05-23T04:01:35.634Z,50.866795
2023-05-23T04:02:35.649Z,50.866783
2023-05-23T04:03:35.903Z,50.866791
2023-05-23T04:04:35.672Z,50.866810
2023-05-23T04:05:35.608Z,50.866825
2023-05-23T04:06:35.598Z,50.866840
2023-05-23T04:07:35.573Z,50.866886
2023-05-23T04:08:35.608Z,50.866821
2023-05-23T04:09:35.547Z,50.866745
2023-05-23T04:10:35.561Z,50.866749
2023-05-23T04:11:35.553Z,50.866749
2023-05-23T04:12:35.536Z,50.866684
2023-05-23T04:13:35.610Z,50.866669
2023-05-23T04:14:35.533Z,50.866680
2023-05-23T04:15:35.522Z,50.866692
2023-05-23T04:16:35.687Z,50.866673
2023-05-23T04:17:35.532Z,50.866657
2023-05-23T04:18:35.505Z,50.866653
2023-05-23T04:19:35.560Z,50.866627
2023-05-23T04:20:36.191Z,50.866600
2023-05-23T04:21:35.473Z,50.866608
2023-05-23T04:22:35.464Z,50.866657
2023-05-23T04:23:35.458Z,50.866638
2023-05-23T04:24:35.451Z,50.866646
2023-05-23T04:25:35.443Z,50.866676
2023-05-23T04:26:35.435Z,50.866661
2023-05-23T04:27:35.977Z,50.866657
2023-05-23T04:28:35.429Z,50.866673
2023-05-23T04:29:35.404Z,50.866680
2023-05-23T04:30:35.392Z,50.866684
2023-05-23T04:31:35.498Z,50.866665
2023-05-23T04:32:35.528Z,50.866669
2023-05-23T04:33:35.382Z,50.866684
2023-05-23T04:34:35.384Z,50.866684
2023-05-23T04:35:35.363Z,50.866684
2023-05-23T04:36:35.360Z,50.866680
2023-05-23T04:37:35.345Z,50.866692
2023-05-23T04:38:35.349Z,50.866676
2023-05-23T04:39:35.332Z,50.866665
2023-05-23T04:40:35.322Z,50.866646
2023-05-23T04:41:36.360Z,50.866646
2023-05-23T04:42:35.314Z,50.866695
2023-05-23T04:43:35.305Z,50.866745
2023-05-23T04:44:35.303Z,50.866749
2023-05-23T04:45:35.284Z,50.866756
2023-05-23T04:46:35.299Z,50.866718
2023-05-23T04:47:37.294Z,50.866657
2023-05-23T04:48:36.402Z,50.866631
2023-05-23T04:49:35.245Z,50.866699
2023-05-23T04:50:35.240Z,50.866734
2023-05-23T04:51:35.225Z,50.866802
2023-05-23T04:52:35.228Z,50.866802
2023-05-23T04:53:35.224Z,50.866783
2023-05-23T04:54:35.208Z,50.866787
2023-05-23T04:55:35.202Z,50.866772
2023-05-23T04:56:35.200Z,50.866798
2023-05-23T04:57:35.188Z,50.866791
2023-05-23T04:58:35.192Z,50.866798
2023-05-23T04:59:35.233Z,50.866779
2023-05-23T05:00:35.204Z,50.866764
2023-05-23T05:01:35.227Z,50.866745
2023-05-23T05:02:35.186Z,50.866722
2023-05-23T05:03:35.152Z,50.866745
2023-05-23T05:04:35.749Z,50.866707
2023-05-23T05:05:35.126Z,50.866783
2023-05-23T05:06:35.158Z,50.866760
2023-05-23T05:07:35.147Z,50.866783
2023-05-23T05:08:35.095Z,50.866734
2023-05-23T05:09:35.117Z,50.866703
2023-05-23T05:10:35.720Z,50.866730
2023-05-23T05:11:35.110Z,50.866695
2023-05-23T05:12:35.056Z,50.866714
2023-05-23T05:13:36.730Z,50.866753
2023-05-23T05:14:35.063Z,50.866783
2023-05-23T05:15:35.111Z,50.866726
2023-05-23T05:16:35.055Z,50.866772
2023-05-23T05:17:35.033Z,50.866760
2023-05-23T05:18:35.027Z,50.866825
2023-05-23T05:19:35.076Z,50.866741
2023-05-23T05:20:35.122Z,50.866776
2023-05-23T05:21:34.979Z,50.866764
2023-05-23T05:22:34.988Z,50.866718
2023-05-23T05:23:34.981Z,50.866837
2023-05-23T05:24:34.958Z,50.866776
2023-05-23T05:25:34.962Z,50.866741
2023-05-23T05:26:34.947Z,50.866734
2023-05-23T05:27:34.948Z,50.866741
2023-05-23T05:28:34.928Z,50.866714
2023-05-23T05:29:34.928Z,50.866718
2023-05-23T05:30:35.719Z,50.866741
2023-05-23T05:31:35.008Z,50.866753
2023-05-23T05:32:34.948Z,50.866737
2023-05-23T05:33:34.890Z,50.866753
2023-05-23T05:34:34.891Z,50.866756
2023-05-23T05:35:34.890Z,50.866776
2023-05-23T05:36:34.977Z,50.866829
2023-05-23T05:37:35.795Z,50.866814
2023-05-23T05:38:34.902Z,50.866814
2023-05-23T05:39:34.846Z,50.866798
2023-05-23T05:40:34.847Z,50.866810
2023-05-23T05:41:34.835Z,50.866791
2023-05-23T05:42:34.813Z,50.866795
2023-05-23T05:43:35.737Z,50.866795
2023-05-23T05:44:34.804Z,50.866776
2023-05-23T05:45:36.741Z,50.866772
2023-05-23T05:46:34.825Z,50.866833
2023-05-23T05:47:34.852Z,50.866829
2023-05-23T05:48:34.899Z,50.866833
2023-05-23T05:49:34.761Z,50.866848
2023-05-23T05:50:34.775Z,50.866848
2023-05-23T05:51:34.748Z,50.866802
2023-05-23T05:52:34.853Z,50.866802
2023-05-23T05:53:34.768Z,50.866779
2023-05-23T05:54:34.725Z,50.866802
2023-05-23T05:55:34.721Z,50.866879
2023-05-23T05:56:34.720Z,50.866901
2023-05-23T05:57:36.241Z,50.866879
2023-05-23T05:58:34.696Z,50.866875
2023-05-23T05:59:35.245Z,50.866810
2023-05-23T06:00:34.774Z,50.866798
2023-05-23T06:01:34.677Z,50.866810
2023-05-23T06:02:34.773Z,50.866879
2023-05-23T06:03:34.818Z,50.866848
2023-05-23T06:04:34.732Z,50.866848
2023-05-23T06:28:42.357Z,50.866814
2023-05-23T06:29:42.354Z,50.866844
2023-05-23T06:30:42.605Z,50.866837
2023-05-23T06:31:42.362Z,50.866802
2023-05-23T06:32:42.407Z,50.866837
2023-05-23T06:33:42.323Z,50.866833
2023-05-23T06:34:42.327Z,50.866829
2023-05-23T06:35:42.836Z,50.866814
2023-05-23T06:36:42.302Z,50.866852
2023-05-23T06:37:42.319Z,50.866898
2023-05-23T06:38:42.312Z,50.866882
2023-05-23T06:39:42.323Z,50.866917
2023-05-23T06:40:42.481Z,50.866875
2023-05-23T06:41:42.262Z,50.866844
2023-05-23T06:42:42.249Z,50.866825
2023-05-23T06:43:42.267Z,50.866791
2023-05-23T06:44:42.235Z,50.866783
2023-05-23T06:45:42.847Z,50.866791
2023-05-23T06:46:42.226Z,50.866814
2023-05-23T06:47:42.263Z,50.866821
2023-05-23T06:48:42.201Z,50.866829
2023-05-23T06:49:42.218Z,50.866863
2023-05-23T06:50:42.571Z,50.866863
2023-05-23T06:51:42.314Z,50.866833
2023-05-23T06:52:42.199Z,50.866833
2023-05-23T06:53:42.156Z,50.866890
2023-05-23T06:54:42.157Z,50.866856
2023-05-23T06:55:42.257Z,50.866840
2023-05-23T06:56:42.148Z,50.866833
2023-05-23T06:57:42.177Z,50.866844
2023-05-23T07:01:51.115Z,50.866833
2023-05-23T07:02:50.475Z,50.866802
2023-05-23T07:03:50.354Z,50.866779
2023-05-23T07:04:50.324Z,50.866791
2023-05-23T07:05:52.231Z,50.866825
2023-05-23T07:06:51.154Z,50.866776
2023-05-23T07:07:50.296Z,50.866806
2023-05-23T07:08:50.301Z,50.866825
2023-05-23T07:09:51.125Z,50.866829
2023-05-23T07:10:50.377Z,50.866768
2023-05-23T07:11:50.291Z,50.866810
2023-05-23T07:12:50.247Z,50.866817
2023-05-23T07:13:50.277Z,50.866730
2023-05-23T07:14:53.629Z,50.866734
2023-05-23T07:15:50.262Z,50.866776
2023-05-23T07:19:58.165Z,50.866291
2023-05-23T07:20:58.137Z,50.866543
2023-05-23T07:21:58.137Z,50.866486
2023-05-23T07:22:58.142Z,50.866566
2023-05-23T07:23:58.117Z,50.866703
2023-05-23T07:24:58.133Z,50.866608
2023-05-23T07:26:02.371Z,50.866581
2023-05-23T07:27:00.110Z,50.866592
2023-05-23T07:27:58.119Z,50.866703
2023-05-23T07:28:59.010Z,50.866718
2023-05-23T07:29:58.107Z,50.866699
2023-05-23T07:30:58.124Z,50.866707
2023-05-23T07:31:58.060Z,50.866699
2023-05-23T07:32:58.088Z,50.866745
2023-05-23T07:33:58.497Z,50.866741
2023-05-23T07:34:58.070Z,50.866737
2023-05-23T07:35:58.021Z,50.866703
2023-05-23T07:36:58.019Z,50.866753
2023-05-23T07:37:58.020Z,50.866737
2023-05-23T07:38:58.008Z,50.866703
2023-05-23T07:39:58.005Z,50.866703
2023-05-23T07:41:07.395Z,50.866749
2023-05-23T07:41:59.971Z,50.866753
2023-05-23T07:42:57.961Z,50.866741
2023-05-23T07:43:58.023Z,50.866756
2023-05-23T07:44:57.986Z,50.866791
2023-05-23T07:45:57.950Z,50.866776
2023-05-23T07:46:57.996Z,50.866814
2023-05-23T07:47:58.031Z,50.866787
2023-05-23T07:48:57.913Z,50.866776
2023-05-23T07:49:57.922Z,50.866753
2023-05-23T07:50:57.917Z,50.866875
2023-05-23T07:51:57.889Z,50.866947
2023-05-23T07:52:57.886Z,50.866898
2023-05-23T07:53:57.879Z,50.866776
2023-05-23T07:54:57.867Z,50.866753
2023-05-23T07:55:57.857Z,50.866714
2023-05-23T07:56:57.848Z,50.866745
2023-05-23T07:57:57.868Z,50.866806
2023-05-23T07:58:57.837Z,50.866821
2023-05-23T07:59:57.856Z,50.866810
2023-05-23T08:00:57.819Z,50.866787
2023-05-23T08:01:57.903Z,50.866737
2023-05-23T08:02:57.814Z,50.866741
2023-05-23T08:03:57.824Z,50.866779
2023-05-23T08:04:57.784Z,50.866806
2023-05-23T08:05:57.768Z,50.866756
2023-05-23T08:07:04.893Z,50.866764
2023-05-23T08:07:59.778Z,50.866806
2023-05-23T08:08:57.752Z,50.866795
2023-05-23T08:09:57.792Z,50.866783
2023-05-23T08:10:57.748Z,50.866787
2023-05-23T08:11:57.810Z,50.866795
2023-05-23T08:12:57.716Z,50.866753
2023-05-23T08:13:59.427Z,50.866753
2023-05-23T08:14:57.702Z,50.866779
2023-05-23T08:15:57.730Z,50.866810
2023-05-23T08:16:57.764Z,50.866795
2023-05-23T08:17:57.741Z,50.866798
2023-05-23T08:18:57.709Z,50.866787
2023-05-23T08:19:57.714Z,50.866798
2023-05-23T08:20:57.654Z,50.866783
2023-05-23T08:21:57.785Z,50.866772
2023-05-23T08:22:57.690Z,50.866791
2023-05-23T08:23:57.638Z,50.866791
2023-05-23T08:24:57.638Z,50.866795
2023-05-23T08:25:57.645Z,50.866806
2023-05-23T08:26:57.610Z,50.866787
2023-05-23T08:27:57.605Z,50.866756
2023-05-23T08:28:57.589Z,50.866745
2023-05-23T08:29:57.596Z,50.866741
2023-05-23T08:30:57.582Z,50.866737
2023-05-23T08:31:57.589Z,50.866714
2023-05-23T08:32:57.619Z,50.866783
2023-05-23T08:33:57.562Z,50.866676
2023-05-23T08:34:57.566Z,50.866737
2023-05-23T08:35:58.460Z,50.866764
2023-05-23T08:36:57.551Z,50.866730
2023-05-23T08:37:57.551Z,50.866783
2023-05-23T08:38:57.538Z,50.866711
2023-05-23T08:39:58.029Z,50.866676
2023-05-23T08:40:57.503Z,50.866646
2023-05-23T08:41:57.495Z,50.866726
2023-05-23T08:42:58.073Z,50.866718
2023-05-23T08:43:58.084Z,50.866737
2023-05-23T08:44:57.480Z,50.866707
2023-05-23T08:45:58.581Z,50.866745
2023-05-23T08:46:57.449Z,50.866753
2023-05-23T08:47:57.462Z,50.866783
2023-05-23T08:48:57.443Z,50.866730
2023-05-23T08:49:57.434Z,50.866734
2023-05-23T08:50:57.438Z,50.866745
2023-05-23T08:51:57.493Z,50.866734
2023-05-23T08:52:57.428Z,50.866734
2023-05-23T08:53:57.402Z,50.866718
2023-05-23T08:54:57.409Z,50.866768
2023-05-23T08:55:57.385Z,50.866695
2023-05-23T08:56:57.386Z,50.866692
2023-05-23T08:57:57.365Z,50.866699
2023-05-23T08:58:57.363Z,50.866745
2023-05-23T08:59:57.388Z,50.866726
2023-05-23T09:00:57.373Z,50.866680
2023-05-23T09:01:58.144Z,50.866734
2023-05-23T09:02:57.476Z,50.866760
2023-05-23T09:03:57.319Z,50.866726
2023-05-23T09:04:57.364Z,50.866749
2023-05-23T09:05:57.444Z,50.866768
2023-05-23T09:06:57.315Z,50.866722
2023-05-23T09:07:57.303Z,50.866741
2023-05-23T09:08:57.294Z,50.866779
2023-05-23T09:09:57.293Z,50.866863
2023-05-23T09:10:57.263Z,50.866997
2023-05-23T09:11:57.264Z,50.866886
2023-05-23T09:12:57.262Z,50.866821
2023-05-23T09:13:57.261Z,50.866810
2023-05-23T09:14:57.237Z,50.866776
2023-05-23T09:15:57.276Z,50.866882
2023-05-23T09:16:57.242Z,50.866924
2023-05-23T09:17:57.320Z,50.866852
2023-05-23T09:18:57.310Z,50.866810
2023-05-23T09:19:57.214Z,50.866726
2023-05-23T09:20:57.200Z,50.866772
2023-05-23T09:21:57.225Z,50.866814
2023-05-23T09:22:57.242Z,50.866768
2023-05-23T09:23:57.173Z,50.866890
2023-05-23T09:24:57.172Z,50.866917
2023-05-23T09:25:57.967Z,50.867016
2023-05-23T09:26:57.179Z,50.867073
2023-05-23T09:27:57.141Z,50.866882
2023-05-23T09:28:57.150Z,50.866936
2023-05-23T09:29:57.139Z,50.866859
2023-05-23T09:30:57.153Z,50.866821
2023-05-23T09:31:57.313Z,50.866920
2023-05-23T09:33:00.196Z,50.867031
2023-05-23T09:33:57.105Z,50.866791
2023-05-23T09:47:05.515Z,50.866806
2023-05-23T09:48:05.487Z,50.866745
2023-05-23T09:49:05.465Z,50.866745
2023-05-23T09:50:05.432Z,50.866745
2023-05-23T09:51:05.439Z,50.866791
2023-05-23T09:52:05.428Z,50.866917
2023-05-23T09:53:05.444Z,50.866821
2023-05-23T09:54:06.405Z,50.866764
2023-05-23T09:55:05.391Z,50.866776
2023-05-23T09:56:05.426Z,50.867043
2023-05-23T09:57:06.033Z,50.866867
2023-05-23T09:58:05.373Z,50.866749
2023-05-23T09:59:05.353Z,50.866394
2023-05-23T10:00:06.379Z,50.866486
2023-05-23T10:01:05.393Z,50.866581
2023-05-23T10:02:05.354Z,50.866726
2023-05-23T10:03:05.392Z,50.866665
2023-05-23T10:04:05.403Z,50.866745
2023-05-23T10:05:06.866Z,50.866722
2023-05-23T10:06:05.310Z,50.866570
2023-05-23T10:07:05.307Z,50.866615
2023-05-23T10:08:05.331Z,50.866810
2023-05-23T10:09:05.341Z,50.866760
2023-05-23T10:10:05.287Z,50.866570
2023-05-23T10:11:05.281Z,50.866547
2023-05-23T10:12:05.268Z,50.866688
2023-05-23T10:13:05.248Z,50.866825
2023-05-23T10:14:05.254Z,50.866673
2023-05-23T10:15:05.245Z,50.866707
2023-05-23T10:16:05.837Z,50.866665
2023-05-23T10:17:05.266Z,50.866531
2023-05-23T10:18:05.224Z,50.866577
2023-05-23T10:19:05.237Z,50.866699
2023-05-23T10:20:05.822Z,50.866589
2023-05-23T10:21:05.184Z,50.866661
2023-05-23T10:22:05.203Z,50.866661
2023-05-23T10:23:05.194Z,50.866596
2023-05-23T10:24:05.355Z,50.866734
2023-05-23T10:25:05.213Z,50.866806
2023-05-23T10:26:05.220Z,50.866882
2023-05-23T10:27:05.155Z,50.866795
2023-05-23T10:28:05.215Z,50.866920
2023-05-23T10:29:05.134Z,50.866879
2023-05-23T10:30:05.118Z,50.866699
2023-05-23T10:31:06.162Z,50.866779
2023-05-23T10:32:05.103Z,50.866699
2023-05-23T10:33:06.163Z,50.866699
2023-05-23T10:34:05.105Z,50.866783
2023-05-23T10:35:05.079Z,50.866749
2023-05-23T10:36:05.115Z,50.866756
2023-05-23T10:37:05.066Z,50.866795
2023-05-23T10:38:05.047Z,50.866817
2023-05-23T10:39:05.047Z,50.866802
2023-05-23T10:40:05.055Z,50.866817
2023-05-23T10:41:05.049Z,50.866825
2023-05-23T10:42:05.095Z,50.866817
2023-05-23T10:43:05.003Z,50.866791
2023-05-23T10:44:05.056Z,50.866718
2023-05-23T10:45:04.985Z,50.866764
2023-05-23T10:46:05.141Z,50.866783
2023-05-23T10:47:05.054Z,50.866863
2023-05-23T10:48:05.020Z,50.866810
2023-05-23T10:49:04.964Z,50.866779
2023-05-23T10:50:04.979Z,50.866756
2023-05-23T10:51:05.827Z,50.866779
2023-05-23T10:52:04.934Z,50.866867
2023-05-23T10:53:04.941Z,50.866898
2023-05-23T10:54:04.923Z,50.866848
2023-05-23T10:55:04.918Z,50.866886
2023-05-23T10:56:05.436Z,50.866871
2023-05-23T10:57:04.964Z,50.866825
2023-05-23T10:58:04.900Z,50.866814
2023-05-23T10:59:04.899Z,50.866795
2023-05-23T11:00:04.873Z,50.866879
2023-05-23T11:01:04.909Z,50.866810
2023-05-23T11:02:04.874Z,50.866840
2023-05-23T11:03:04.955Z,50.866867
2023-05-23T11:04:04.901Z,50.866856
2023-05-23T11:05:04.837Z,50.866795
2023-05-23T11:06:04.854Z,50.866802
2023-05-23T11:07:05.823Z,50.866817
2023-05-23T11:08:04.839Z,50.866837
2023-05-23T11:09:07.045Z,50.866871
2023-05-23T11:10:05.820Z,50.866844
2023-05-23T11:11:06.322Z,50.866844
2023-05-23T11:12:04.823Z,50.866917
2023-05-23T11:13:04.764Z,50.866890
2023-05-23T11:14:04.849Z,50.866932
2023-05-23T11:15:04.747Z,50.866844
2023-05-23T11:16:04.941Z,50.866863
2023-05-23T11:17:04.820Z,50.866806
2023-05-23T11:18:04.768Z,50.866833
2023-05-23T11:19:04.765Z,50.866814
2023-05-23T11:20:04.719Z,50.866760
2023-05-23T11:21:04.724Z,50.866798
2023-05-23T11:22:06.429Z,50.866787
2023-05-23T11:23:05.690Z,50.866795
2023-05-23T11:24:07.367Z,50.866783
2023-05-23T11:25:04.689Z,50.866714
2023-05-23T11:26:04.675Z,50.866787
2023-05-23T11:27:04.664Z,50.866821
2023-05-23T11:28:04.655Z,50.866959
2023-05-23T11:29:04.653Z,50.866829
2023-05-23T11:30:04.647Z,50.866718
2023-05-23T11:31:04.626Z,50.866737
2023-05-23T11:32:05.059Z,50.866756
2023-05-23T11:33:04.656Z,50.866795
2023-05-23T11:34:04.600Z,50.866749
2023-05-23T11:35:05.428Z,50.866741
2023-05-23T11:36:04.621Z,50.866772
2023-05-23T11:37:04.582Z,50.866779
2023-05-23T11:38:04.572Z,50.866737
2023-05-23T11:39:04.580Z,50.866714
2023-05-23T11:40:04.582Z,50.866737
2023-05-23T11:41:04.572Z,50.866730
2023-05-23T11:42:04.579Z,50.866734
2023-05-23T11:43:07.894Z,50.866772
2023-05-23T11:44:38.877Z,50.866722
2023-05-23T11:45:04.533Z,50.866737
2023-05-23T11:46:04.560Z,50.866772
2023-05-23T11:47:04.512Z,50.866768
2023-05-23T11:48:04.540Z,50.866829
2023-05-23T11:49:04.523Z,50.866817
2023-05-23T11:50:04.482Z,50.866783
2023-05-23T11:51:04.487Z,50.866791
2023-05-23T11:52:04.506Z,50.866741
2023-05-23T11:53:04.567Z,50.866749
2023-05-23T11:54:04.457Z,50.866753
2023-05-23T11:55:04.455Z,50.866718
2023-05-23T11:56:05.387Z,50.866787
2023-05-23T11:57:05.428Z,50.866695
2023-05-23T11:58:06.379Z,50.866688
2023-05-23T11:59:04.405Z,50.866734
2023-05-23T12:00:08.401Z,50.866749
2023-05-23T12:01:05.382Z,50.866703
2023-05-23T12:02:04.435Z,50.866817
2023-05-23T12:03:04.410Z,50.866749
2023-05-23T12:04:04.526Z,50.866795
2023-05-23T12:05:04.954Z,50.866806
2023-05-23T12:06:04.381Z,50.866695
2023-05-23T12:07:04.401Z,50.866680
2023-05-23T12:08:04.390Z,50.866665
2023-05-23T12:09:04.341Z,50.866673
2023-05-23T12:10:04.325Z,50.866657
2023-05-23T12:11:04.324Z,50.866642
2023-05-23T12:12:04.964Z,50.866646
2023-05-23T12:13:05.893Z,50.866665
2023-05-23T12:14:04.309Z,50.866703
2023-05-23T12:15:04.313Z,50.866692
2023-05-23T12:16:05.165Z,50.866676
2023-05-23T12:17:04.264Z,50.866680
2023-05-23T12:18:05.283Z,50.866676
2023-05-23T12:19:04.293Z,50.866688
2023-05-23T12:20:04.262Z,50.866699
2023-05-23T12:21:04.226Z,50.866692
2023-05-23T12:22:04.245Z,50.866699